Time;durP1;ratioP1;P1;durP2;ratioP2;P2;SDS_P1;SDS_P2;PMS_P1;PMS_P2;Temp;Humidity;BMP_temperature;BMP_pressure;BME280_temperature;BME280_humidity;BME280_pressure;Samples;Min_cycle;Max_cycle;Signal;HPM_P1;HPM_P2
2022/06/08 00:00:03;;;;;;;10.98;9.55;;;18.30;90.20;;;;;;10396483;28;20197;-87
2022/06/08 00:05:30;;;;;;;9.10;8.07;;;18.30;90.90;;;;;;10396827;28;20292;-82
2022/06/08 00:10:51;;;;;;;10.63;8.25;;;18.30;77.50;;;;;;10398665;28;20222;-85
2022/06/08 00:16:13;;;;;;;12.88;7.78;;;18.20;61.60;;;;;;10382245;28;20193;-83
2022/06/08 00:21:35;;;;;;;7.53;6.72;;;18.20;54.30;;;;;;10367921;28;20212;-84
2022/06/08 00:26:57;;;;;;;6.32;5.72;;;18.20;45.40;;;;;;10397959;28;20240;-85
2022/06/08 00:32:18;;;;;;;7.07;4.93;;;18.10;41.70;;;;;;10394879;28;20200;-84
2022/06/08 00:37:41;;;;;;;6.45;5.75;;;18.10;40.80;;;;;;10367624;28;20201;-82
2022/06/08 00:43:02;;;;;;;6.40;5.40;;;17.90;41.60;;;;;;10380848;28;20189;-85
2022/06/08 00:48:29;;;;;;;7.40;5.80;;;17.80;40.90;;;;;;10395250;28;20228;-85
2022/06/08 00:53:58;;;;;;;6.95;5.22;;;17.70;39.20;;;;;;10367818;28;20208;-83
2022/06/08 00:59:20;;;;;;;5.15;4.63;;;17.70;39.60;;;;;;10381123;28;20204;-83
2022/06/08 01:04:41;;;;;;;9.73;6.68;;;17.70;46.30;;;;;;10367240;28;20300;-84
2022/06/08 01:10:04;;;;;;;7.88;6.05;;;17.60;52.00;;;;;;10380433;28;20193;-87
2022/06/08 01:15:28;;;;;;;9.35;6.22;;;17.50;68.80;;;;;;10394935;28;20193;-84
2022/06/08 01:20:55;;;;;;;7.65;6.50;;;17.30;84.40;;;;;;10381157;28;20231;-84
2022/06/08 01:26:55;;;;;;;6.75;5.85;;;17.20;99.90;;;;;;10380239;28;20290;-85
2022/06/08 01:32:35;;;;;;;6.93;6.22;;;17.10;99.90;;;;;;10384397;28;20255;-87
2022/06/08 01:37:59;;;;;;;9.00;7.47;;;17.00;99.90;;;;;;10401190;28;20210;-84
2022/06/08 01:43:44;;;;;;;7.18;6.13;;;16.90;99.90;;;;;;10401320;28;20201;-83
2022/06/08 01:49:13;;;;;;;6.22;5.63;;;16.90;99.90;;;;;;10374062;28;20208;-84
2022/06/08 01:54:50;;;;;;;7.15;6.45;;;16.90;99.90;;;;;;10373742;28;20209;-87
2022/06/08 02:00:17;;;;;;;6.72;5.45;;;16.80;99.90;;;;;;10387173;28;20203;-84
2022/06/08 02:05:59;;;;;;;7.93;5.63;;;16.80;99.90;;;;;;10374141;28;20235;-84
2022/06/08 02:11:42;;;;;;;6.65;5.45;;;16.70;99.90;;;;;;10387438;28;20440;-85
2022/06/08 02:17:31;;;;;;;5.68;5.10;;;16.60;99.90;;;;;;10373410;28;20205;-84
2022/06/08 02:23:00;;;;;;;7.68;6.88;;;16.60;99.90;;;;;;10399649;28;20389;-84
2022/06/08 02:28:38;;;;;;;23.02;15.07;;;16.50;99.90;;;;;;10402244;28;20247;-83
2022/06/08 02:34:28;;;;;;;45.75;27.52;;;16.40;99.90;;;;;;10384837;28;20208;-84
2022/06/08 02:40:03;;;;;;;22.30;15.02;;;16.40;99.90;;;;;;10385602;28;20200;-82
2022/06/08 02:45:35;;;;;;;14.02;9.73;;;16.40;99.90;;;;;;10385681;28;20530;-84
2022/06/08 02:50:57;;;;;;;9.98;6.60;;;16.40;99.90;;;;;;10392836;28;20201;-82
2022/06/08 02:56:52;;;;;;;6.22;5.63;;;16.40;99.90;;;;;;10406640;28;20192;-84
2022/06/08 03:02:30;;;;;;;6.55;5.90;;;16.50;99.90;;;;;;10385089;28;20201;-86
2022/06/08 03:08:07;;;;;;;7.13;5.38;;;16.50;99.90;;;;;;10384140;28;20224;-87
2022/06/08 03:13:41;;;;;;;8.63;6.60;;;16.50;99.90;;;;;;10384580;28;20257;-85
2022/06/08 03:19:03;;;;;;;8.07;6.55;;;16.50;99.90;;;;;;10383961;28;20200;-84
2022/06/08 03:24:27;;;;;;;7.47;5.95;;;16.50;99.90;;;;;;10383755;28;20279;-83
2022/06/08 03:29:49;;;;;;;6.43;5.82;;;16.50;99.90;;;;;;10427842;28;20250;-86
2022/06/08 03:35:12;;;;;;;7.05;6.05;;;16.60;99.90;;;;;;10398570;28;20274;-83
2022/06/08 03:40:37;;;;;;;6.38;5.60;;;16.60;99.90;;;;;;10370240;28;20499;-83
2022/06/08 03:46:02;;;;;;;9.77;6.63;;;16.70;99.90;;;;;;10383519;28;20270;-82
2022/06/08 03:51:25;;;;;;;7.90;5.63;;;16.80;99.90;;;;;;10397481;28;20193;-84
2022/06/08 03:56:52;;;;;;;9.50;6.85;;;16.80;99.90;;;;;;10371947;28;20200;-81
2022/06/08 04:02:16;;;;;;;7.05;6.28;;;16.80;99.90;;;;;;10382710;28;20307;-85
2022/06/08 04:07:41;;;;;;;7.57;6.78;;;16.90;99.90;;;;;;10383030;28;20220;-83
2022/06/08 04:13:02;;;;;;;9.93;7.85;;;17.00;99.90;;;;;;10382834;28;20204;-82
2022/06/08 04:18:26;;;;;;;7.85;6.25;;;17.00;99.90;;;;;;10369679;28;20205;-84
2022/06/08 04:23:53;;;;;;;8.10;6.20;;;17.10;99.90;;;;;;10382679;28;20236;-85
2022/06/08 04:29:18;;;;;;;10.02;7.28;;;17.10;99.90;;;;;;10378401;28;20431;-82
2022/06/08 04:34:41;;;;;;;8.98;6.85;;;17.10;99.90;;;;;;10367993;28;20437;-82
2022/06/08 04:40:11;;;;;;;6.53;5.32;;;17.10;99.90;;;;;;10368343;28;20435;-84
2022/06/08 04:45:37;;;;;;;6.22;5.22;;;17.30;99.90;;;;;;10368055;28;20228;-82
2022/06/08 04:51:03;;;;;;;5.55;4.88;;;17.40;99.90;;;;;;10381793;28;20200;-87
2022/06/08 04:56:27;;;;;;;5.93;5.32;;;17.60;99.60;;;;;;10369616;28;20491;-83
2022/06/08 05:01:51;;;;;;;9.73;6.45;;;17.80;99.90;;;;;;10367627;28;20404;-82
2022/06/08 05:07:13;;;;;;;8.85;6.22;;;17.90;81.60;;;;;;10388895;28;20231;-89
2022/06/08 05:12:36;;;;;;;7.95;6.10;;;18.00;66.00;;;;;;10402951;28;20208;-82
2022/06/08 05:17:58;;;;;;;5.70;5.20;;;18.10;62.80;;;;;;10388949;28;20209;-83
2022/06/08 05:23:28;;;;;;;9.02;6.22;;;18.30;61.90;;;;;;10375507;28;20192;-83
2022/06/08 05:28:51;;;;;;;5.40;4.65;;;18.50;44.70;;;;;;10409025;28;20236;-83
2022/06/08 05:34:12;;;;;;;5.03;4.53;;;18.60;41.10;;;;;;10381955;28;20525;-81
2022/06/08 05:39:35;;;;;;;5.30;4.80;;;18.80;36.30;;;;;;10387310;28;20263;-82
2022/06/08 05:44:57;;;;;;;6.47;5.53;;;19.00;29.70;;;;;;10390133;28;20229;-82
2022/06/08 05:50:22;;;;;;;5.75;4.97;;;19.10;14.70;;;;;;10377318;28;20207;-82
2022/06/08 05:55:45;;;;;;;4.93;4.40;;;19.20;10.00;;;;;;10390647;28;20201;-86
2022/06/08 06:01:07;;;;;;;5.90;5.32;;;19.30;1.00;;;;;;10409356;28;20199;-84
2022/06/08 06:06:31;;;;;;;5.45;4.82;;;19.50;1.00;;;;;;10431833;28;20297;-84
2022/06/08 06:11:55;;;;;;;5.55;4.97;;;19.70;1.00;;;;;;10377486;28;20554;-83
2022/06/08 06:17:23;;;;;;;4.93;4.30;;;19.90;99.90;;;;;;10387148;28;20252;-85
2022/06/08 06:22:45;;;;;;;4.68;4.25;;;20.10;99.90;;;;;;10388872;28;20240;-83
2022/06/08 06:28:31;;;;;;;6.15;4.60;;;20.20;99.90;;;;;;10425439;28;20239;-84
2022/06/08 06:34:15;;;;;;;4.72;4.28;;;20.30;99.90;;;;;;10400999;28;20212;-85
2022/06/08 06:39:37;;;;;;;4.78;4.03;;;20.50;99.90;;;;;;10347872;28;20194;-84
2022/06/08 06:45:11;;;;;;;5.07;3.88;;;20.90;99.90;;;;;;10360645;28;20314;-85
2022/06/08 06:50:38;;;;;;;5.55;4.28;;;21.30;99.90;;;;;;10347441;28;20277;-86
2022/06/08 06:56:01;;;;;;;6.88;3.83;;;21.70;99.90;;;;;;10349809;28;20212;-84
2022/06/08 07:01:42;;;;;;;4.07;3.78;;;22.10;99.90;;;;;;10390841;28;20197;-85
2022/06/08 07:07:05;;;;;;;4.97;3.90;;;22.50;99.90;;;;;;10363352;28;20252;-91
2022/06/08 07:12:27;;;;;;;4.13;3.70;;;22.80;99.90;;;;;;10380822;28;20193;-88
2022/06/08 07:17:50;;;;;;;4.15;3.47;;;22.80;98.50;;;;;;10394861;28;20205;-83
2022/06/08 07:23:14;;;;;;;7.72;3.50;;;23.50;94.10;;;;;;10385559;28;20276;-85
2022/06/08 07:28:38;;;;;;;4.03;3.40;;;23.70;94.40;;;;;;10402425;28;20232;-86
2022/06/08 07:34:03;;;;;;;5.18;3.30;;;24.00;92.60;;;;;;10382998;28;20225;-84
2022/06/08 07:39:24;;;;;;;3.55;3.10;;;24.40;90.80;;;;;;10378361;28;20244;-93
2022/06/08 07:44:46;;;;;;;2.80;2.60;;;24.90;86.60;;;;;;10379143;28;20205;-83
2022/06/08 07:50:08;;;;;;;2.53;2.30;;;25.10;83.00;;;;;;10391516;28;20210;-82
2022/06/08 07:55:30;;;;;;;3.50;2.75;;;25.40;74.10;;;;;;10394390;28;20205;-84
2022/06/08 08:00:53;;;;;;;3.90;2.60;;;25.80;1.00;;;;;;10379288;28;20395;-87
2022/06/08 08:06:14;;;;;;;2.60;2.30;;;26.10;1.00;;;;;;10376283;28;20462;-89
2022/06/08 08:11:36;;;;;;;5.72;2.53;;;25.70;1.00;;;;;;10392059;28;20504;-83
2022/06/08 08:16:57;;;;;;;5.00;2.40;;;26.00;1.00;;;;;;10392783;28;20201;-87
2022/06/08 08:22:20;;;;;;;6.80;3.13;;;26.30;1.00;;;;;;10363050;28;20259;-85
2022/06/08 08:27:43;;;;;;;6.32;3.83;;;26.10;1.00;;;;;;10406797;28;20261;-82
2022/06/08 08:33:05;;;;;;;5.50;3.10;;;25.90;1.00;;;;;;10375138;28;20245;-83
2022/06/08 08:38:27;;;;;;;10.63;4.00;;;26.60;1.00;;;;;;10361149;28;20205;-86
2022/06/08 08:43:48;;;;;;;6.57;3.92;;;26.60;1.00;;;;;;10376707;28;20252;-88
2022/06/08 08:49:19;;;;;;;11.18;5.10;;;26.60;1.00;;;;;;10362652;28;20237;-94
2022/06/08 08:54:51;;;;;;;8.40;4.65;;;26.70;1.00;;;;;;10256670;28;20243;-88
2022/06/08 09:00:19;;;;;;;3.70;2.90;;;27.10;1.00;;;;;;10257321;28;20279;-86
2022/06/08 09:05:43;;;;;;;10.48;5.72;;;27.10;1.00;;;;;;10255580;28;20314;-83
2022/06/08 09:11:15;;;;;;;5.13;3.70;;;26.60;1.00;;;;;;10270671;28;20270;-86
2022/06/08 09:16:45;;;;;;;4.65;3.10;;;27.10;1.00;;;;;;10257639;28;20275;-86
2022/06/08 09:22:10;;;;;;;8.32;2.58;;;27.40;1.00;;;;;;10257217;28;20207;-86
2022/06/08 09:27:33;;;;;;;6.20;2.90;;;27.90;1.00;;;;;;10257556;28;20231;-87
2022/06/08 09:32:59;;;;;;;10.20;3.17;;;27.70;1.00;;;;;;10261888;28;20222;-85
2022/06/08 09:38:34;;;;;;;7.05;2.22;;;27.30;1.00;;;;;;10261979;28;20294;-83
2022/06/08 09:44:02;;;;;;;5.25;2.38;;;27.00;1.00;;;;;;10275375;28;20199;-83
2022/06/08 09:55:53;;;;;;;5.35;4.45;;;25.60;1.00;;;;;;10299341;28;20206;-83
2022/06/08 10:01:25;;;;;;;10.90;2.80;;;25.30;1.00;;;;;;10296323;28;20447;-84
2022/06/08 10:06:54;;;;;;;4.65;3.03;;;25.60;1.00;;;;;;10261866;28;20298;-88
2022/06/08 10:12:22;;;;;;;5.75;2.90;;;26.10;1.00;;;;;;10287291;28;20500;-87
2022/06/08 10:18:09;;;;;;;7.70;2.75;;;26.60;1.00;;;;;;10261412;28;20204;-87
2022/06/08 10:23:42;;;;;;;4.40;3.03;;;26.70;1.00;;;;;;10249711;28;20203;-88
2022/06/08 10:29:16;;;;;;;6.93;2.72;;;27.00;1.00;;;;;;10276509;28;20235;-85
2022/06/08 10:34:37;;;;;;;7.50;5.43;;;27.60;1.00;;;;;;10270155;28;20207;-83
2022/06/08 10:40:00;;;;;;;3.40;3.10;;;27.20;1.00;;;;;;10259452;28;20226;-88
2022/06/08 10:45:23;;;;;;;3.40;3.10;;;26.60;1.00;;;;;;10261143;28;20242;-87
2022/06/08 10:50:48;;;;;;;4.82;3.10;;;26.40;1.00;;;;;;10259254;28;20247;-85
2022/06/08 10:56:46;;;;;;;6.47;4.13;;;27.20;1.00;;;;;;10280918;28;20203;-88
2022/06/08 11:02:15;;;;;;;20.42;12.43;;;27.40;1.00;;;;;;10275400;28;20203;-85
2022/06/08 11:07:58;;;;;;;5.55;2.97;;;27.20;1.00;;;;;;10260080;28;20230;-86
2022/06/08 11:13:23;;;;;;;4.18;3.22;;;26.80;1.00;;;;;;10247442;28;20250;-83
2022/06/08 11:19:02;;;;;;;5.03;3.70;;;26.10;1.00;;;;;;10283485;28;20286;-87
2022/06/08 11:24:46;;;;;;;8.35;5.43;;;25.70;99.90;;;;;;10266693;28;20197;-85
2022/06/08 11:30:25;;;;;;;3.72;3.30;;;25.60;99.90;;;;;;10277659;28;20415;-91
2022/06/08 11:36:33;;;;;;;5.07;3.00;;;26.60;1.00;;;;;;10260417;28;20274;-87
2022/06/08 11:42:28;;;;;;;5.93;3.38;;;26.80;1.00;;;;;;10289219;28;20202;-87
2022/06/08 11:47:57;;;;;;;5.93;3.22;;;27.20;1.00;;;;;;10267053;28;20225;-85
2022/06/08 11:53:42;;;;;;;4.25;2.45;;;27.40;1.00;;;;;;10267210;28;20230;-83
2022/06/08 11:59:06;;;;;;;3.75;2.97;;;27.40;1.00;;;;;;10285943;28;20203;-86
2022/06/08 12:04:31;;;;;;;4.25;2.85;;;27.20;1.00;;;;;;10268290;28;20449;-87
2022/06/08 12:09:52;;;;;;;9.20;2.85;;;27.20;1.00;;;;;;10289096;28;20242;-84
2022/06/08 12:15:26;;;;;;;2.85;2.42;;;27.70;1.00;;;;;;10282162;28;20341;-84
2022/06/08 12:21:00;;;;;;;4.22;2.83;;;27.20;1.00;;;;;;10235548;28;20209;-89
2022/06/08 12:26:24;;;;;;;3.05;2.75;;;26.50;90.90;;;;;;10224587;28;20218;-84
2022/06/08 12:31:47;;;;;;;5.70;2.53;;;26.50;1.00;;;;;;10273174;28;20240;-83
2022/06/08 12:37:26;;;;;;;4.05;2.58;;;27.30;1.00;;;;;;10262959;28;20211;-88
2022/06/08 12:42:52;;;;;;;4.07;2.10;;;27.40;99.90;;;;;;10277990;28;20512;-83
2022/06/08 12:48:21;;;;;;;2.60;2.40;;;26.80;99.90;;;;;;10260174;28;20227;-84
2022/06/08 12:53:42;;;;;;;5.03;4.30;;;26.50;1.00;;;;;;10278438;28;20244;-86
2022/06/08 12:59:04;;;;;;;8.77;2.63;;;26.20;1.00;;;;;;10262758;28;20218;-80
2022/06/08 13:04:26;;;;;;;8.50;2.55;;;26.60;97.40;;;;;;10281354;28;20243;-84
2022/06/08 13:16:30;;;;;;;11.63;2.33;;;27.60;1.00;;;;;;10286430;28;20203;-84
2022/06/08 13:21:52;;;;;;;10.35;2.45;;;28.10;1.00;;;;;;10289792;28;20198;-83
2022/06/08 13:27:15;;;;;;;15.85;2.88;;;28.50;1.00;;;;;;10287361;28;20226;-86
2022/06/08 13:32:37;;;;;;;7.32;2.47;;;28.60;1.00;;;;;;10272731;28;20195;-84
2022/06/08 13:37:59;;;;;;;4.45;2.53;;;28.40;1.00;;;;;;10270088;28;20266;-80
2022/06/08 13:43:21;;;;;;;9.80;4.68;;;28.20;99.90;;;;;;10300140;28;20202;-84
2022/06/08 13:48:42;;;;;;;7.18;2.75;;;28.00;99.90;;;;;;10312332;28;20265;-84
2022/06/08 13:54:04;;;;;;;4.45;2.00;;;28.20;1.00;;;;;;10289893;28;20235;-83
2022/06/08 13:59:28;;;;;;;3.40;2.60;;;28.10;1.00;;;;;;10271341;28;20202;-85
2022/06/08 14:04:53;;;;;;;5.63;2.80;;;27.70;1.00;;;;;;10271002;28;20194;-83
2022/06/08 14:16:14;;;;;;;6.70;2.85;;;27.20;99.90;;;;;;10281383;28;20203;-82
2022/06/08 14:21:36;;;;;;;3.95;2.10;;;27.00;99.90;;;;;;10283350;28;20195;-83
2022/06/08 14:26:57;;;;;;;3.80;2.60;;;26.70;99.90;;;;;;10272339;28;20226;-87
2022/06/08 14:32:35;;;;;;;6.50;2.17;;;26.50;99.90;;;;;;10297875;28;20206;-85
2022/06/08 14:37:58;;;;;;;5.32;2.65;;;26.30;99.90;;;;;;10257263;28;20214;-84
2022/06/08 14:43:20;;;;;;;6.30;2.17;;;26.20;99.90;;;;;;10299932;28;20202;-84
2022/06/08 14:48:46;;;;;;;3.33;2.95;;;26.10;99.90;;;;;;10265506;28;20226;-89
2022/06/08 14:54:17;;;;;;;6.22;2.90;;;26.10;99.90;;;;;;10278008;28;20235;-85
2022/06/08 14:59:39;;;;;;;5.85;3.13;;;25.90;99.90;;;;;;10282332;28;20233;-84
2022/06/08 15:05:03;;;;;;;5.47;2.30;;;25.80;1.00;;;;;;10275009;28;20618;-88
2022/06/08 15:10:25;;;;;;;4.90;2.60;;;25.80;99.90;;;;;;10293747;28;20233;-93
2022/06/08 15:15:47;;;;;;;3.17;2.75;;;25.70;93.10;;;;;;10282954;28;20203;-83
2022/06/08 15:21:10;;;;;;;4.15;3.10;;;25.60;5.10;;;;;;10277488;28;20364;-85
2022/06/08 15:26:32;;;;;;;3.28;2.92;;;25.50;1.00;;;;;;10275912;28;20306;-88
2022/06/08 15:31:54;;;;;;;3.95;2.75;;;25.40;1.00;;;;;;10223266;29;20529;-87
2022/06/08 15:37:26;;;;;;;4.95;3.28;;;25.20;1.00;;;;;;10278384;28;20203;-83
2022/06/08 15:42:48;;;;;;;3.97;2.90;;;25.00;1.00;;;;;;10263238;28;20271;-82
2022/06/08 15:48:11;;;;;;;7.10;3.40;;;24.80;99.90;;;;;;10258852;28;20247;-81
2022/06/08 15:53:41;;;;;;;3.13;2.60;;;24.60;99.90;;;;;;10259853;28;20255;-80
2022/06/08 15:59:12;;;;;;;3.40;2.80;;;24.40;99.90;;;;;;10270816;28;20195;-82
2022/06/08 16:04:34;;;;;;;3.88;3.40;;;24.20;1.00;;;;;;10290972;28;20266;-81
2022/06/08 16:09:57;;;;;;;8.30;4.22;;;24.30;1.00;;;;;;10276661;28;20498;-80
2022/06/08 16:15:20;;;;;;;5.60;4.43;;;24.20;99.90;;;;;;10275558;28;20195;-80
2022/06/08 16:20:42;;;;;;;6.53;4.13;;;24.20;1.00;;;;;;10261283;28;20188;-80
2022/06/08 16:26:06;;;;;;;3.80;3.50;;;24.10;1.00;;;;;;10271199;28;20245;-84
2022/06/08 16:31:28;;;;;;;4.22;3.50;;;24.00;99.90;;;;;;10232483;28;20214;-82
2022/06/08 16:36:51;;;;;;;7.45;4.00;;;24.00;1.00;;;;;;10274591;28;20214;-81
2022/06/08 16:42:16;;;;;;;4.25;3.67;;;23.90;1.00;;;;;;10235808;29;20200;-81
2022/06/08 16:47:38;;;;;;;6.78;3.50;;;23.90;1.00;;;;;;10254421;29;20223;-81
2022/06/08 16:53:01;;;;;;;6.20;3.90;;;23.90;1.00;;;;;;10260909;29;20530;-81
2022/06/08 17:04:03;;;;;;;7.25;4.53;;;23.80;99.90;;;;;;10282274;28;20279;-81
2022/06/08 17:09:28;;;;;;;4.57;4.13;;;23.50;1.00;;;;;;10281993;28;20222;-80
2022/06/08 17:14:51;;;;;;;6.35;4.65;;;23.30;40.50;;;;;;10282992;28;20493;-80
2022/06/08 17:20:16;;;;;;;4.53;4.13;;;23.30;99.90;;;;;;10267826;29;20426;-80
2022/06/08 17:25:39;;;;;;;4.15;3.75;;;23.20;99.90;;;;;;10274617;28;20463;-80
2022/06/08 17:31:03;;;;;;;5.80;4.68;;;23.20;99.90;;;;;;10293090;28;20238;-82
2022/06/08 17:36:26;;;;;;;6.10;4.45;;;23.20;99.90;;;;;;10267289;28;20237;-84
2022/06/08 17:41:49;;;;;;;5.05;3.80;;;23.30;99.90;;;;;;10267597;28;20198;-84
2022/06/08 17:47:14;;;;;;;4.28;3.70;;;23.30;1.00;;;;;;10281412;28;20418;-84
2022/06/08 17:52:39;;;;;;;6.88;4.68;;;23.30;1.00;;;;;;10280413;28;20278;-82
2022/06/08 17:58:03;;;;;;;5.32;4.68;;;23.10;99.90;;;;;;10280462;28;20266;-85
2022/06/08 18:03:26;;;;;;;10.20;4.97;;;22.80;1.00;;;;;;10253217;28;20199;-83
2022/06/08 18:08:49;;;;;;;7.25;4.63;;;22.70;1.00;;;;;;10272387;28;20223;-84
2022/06/08 18:14:12;;;;;;;9.38;5.32;;;22.50;1.00;;;;;;10294912;28;20199;-82
2022/06/08 18:19:36;;;;;;;7.28;4.80;;;22.40;1.00;;;;;;10279565;28;20281;-82
2022/06/08 18:25:03;;;;;;;6.45;5.78;;;22.30;1.00;;;;;;10265081;28;20494;-80
2022/06/08 18:30:33;;;;;;;6.80;5.35;;;22.10;1.00;;;;;;10278949;28;20235;-82
2022/06/08 18:35:55;;;;;;;9.13;6.22;;;21.90;1.00;;;;;;10279059;28;20536;-80
2022/06/08 18:41:22;;;;;;;7.97;6.78;;;21.60;1.00;;;;;;10278874;28;20195;-83
2022/06/08 18:46:46;;;;;;;7.72;6.05;;;21.60;1.00;;;;;;10264813;28;20234;-80
2022/06/08 18:52:11;;;;;;;7.85;7.03;;;21.50;1.00;;;;;;10278138;28;20490;-81
2022/06/08 18:57:34;;;;;;;8.98;8.07;;;21.40;1.00;;;;;;10264431;28;20506;-84
2022/06/08 19:02:59;;;;;;;7.28;6.57;;;21.30;2.10;;;;;;10264490;28;20199;-82
2022/06/08 19:08:21;;;;;;;8.00;7.20;;;21.20;17.70;;;;;;10265560;28;20234;-81
2022/06/08 19:13:45;;;;;;;8.27;7.38;;;21.10;26.00;;;;;;10263645;28;20241;-84
2022/06/08 19:24:52;;;;;;;9.55;7.95;;;20.90;63.60;;;;;;10288822;28;20198;-83
2022/06/08 19:30:16;;;;;;;10.63;8.25;;;20.80;85.10;;;;;;10263166;28;20230;-81
2022/06/08 19:35:40;;;;;;;9.43;8.18;;;20.70;92.20;;;;;;10262209;28;20239;-81
2022/06/08 19:41:05;;;;;;;11.55;9.15;;;20.60;97.50;;;;;;10277688;28;20195;-82
2022/06/08 19:46:28;;;;;;;10.88;7.75;;;20.40;99.90;;;;;;10276551;28;20359;-85
2022/06/08 19:51:50;;;;;;;8.60;7.57;;;20.40;99.90;;;;;;10276537;28;20241;-80
2022/06/08 19:57:12;;;;;;;10.98;7.88;;;20.20;99.90;;;;;;10275669;28;20206;-84
2022/06/08 20:02:35;;;;;;;11.20;8.85;;;20.20;99.90;;;;;;10262179;28;20278;-84
2022/06/08 20:07:59;;;;;;;16.42;10.43;;;20.00;99.90;;;;;;10275400;28;20249;-85
2022/06/08 20:13:23;;;;;;;13.07;9.50;;;19.90;99.90;;;;;;10275898;28;20201;-82
2022/06/08 20:18:45;;;;;;;13.55;10.13;;;19.80;99.90;;;;;;10275884;28;20270;-81
2022/06/08 20:24:09;;;;;;;13.10;9.82;;;19.80;99.90;;;;;;10266958;28;20198;-79
2022/06/08 20:29:34;;;;;;;11.48;10.13;;;19.70;99.90;;;;;;10320828;28;20397;-83
2022/06/08 20:34:57;;;;;;;11.20;9.00;;;19.70;99.90;;;;;;10273796;28;20269;-82
2022/06/08 20:40:19;;;;;;;12.45;9.20;;;19.60;99.90;;;;;;10275134;28;20274;-81
2022/06/08 20:45:43;;;;;;;12.27;9.35;;;19.60;99.90;;;;;;10250801;28;20204;-83
2022/06/08 20:51:05;;;;;;;9.73;8.73;;;19.50;99.90;;;;;;10247275;28;20322;-82
2022/06/08 20:56:27;;;;;;;12.77;9.18;;;19.40;99.90;;;;;;10260563;29;20381;-83
2022/06/08 21:01:50;;;;;;;9.95;8.95;;;19.40;99.90;;;;;;10274116;28;20274;-85
2022/06/08 21:07:13;;;;;;;12.00;8.68;;;19.40;99.90;;;;;;10260348;28;20291;-80
2022/06/08 21:12:35;;;;;;;14.75;10.00;;;19.30;99.90;;;;;;10273530;28;20226;-81
2022/06/08 21:17:58;;;;;;;12.27;9.27;;;19.20;99.90;;;;;;10274840;28;20241;-80
2022/06/08 21:23:19;;;;;;;13.63;10.52;;;19.20;99.90;;;;;;10273296;28;20202;-80
2022/06/08 21:28:42;;;;;;;14.98;10.52;;;19.10;99.90;;;;;;10290296;28;20222;-83
2022/06/08 21:34:04;;;;;;;13.93;10.30;;;19.00;99.90;;;;;;10276960;28;20207;-80
2022/06/08 21:39:25;;;;;;;15.35;11.27;;;18.90;99.90;;;;;;10259610;29;20497;-82
2022/06/08 21:44:47;;;;;;;13.60;10.82;;;18.90;99.90;;;;;;10224277;29;20204;-80
2022/06/08 21:50:08;;;;;;;14.30;10.75;;;18.70;99.90;;;;;;10245803;28;20234;-79
2022/06/08 21:55:52;;;;;;;12.65;10.45;;;18.70;99.90;;;;;;10281186;28;20219;-85
2022/06/08 22:01:16;;;;;;;17.02;11.13;;;18.60;99.90;;;;;;10279970;28;20223;-81
2022/06/08 22:06:41;;;;;;;15.45;10.68;;;18.60;99.90;;;;;;10279909;28;20203;-82
2022/06/08 22:12:02;;;;;;;13.82;10.32;;;18.50;99.90;;;;;;10258557;28;20204;-80
2022/06/08 22:17:24;;;;;;;14.15;11.10;;;18.50;99.90;;;;;;10280615;28;20196;-80
2022/06/08 22:22:47;;;;;;;15.55;11.40;;;18.40;99.90;;;;;;10265575;28;20274;-82
2022/06/08 22:28:10;;;;;;;13.80;10.75;;;18.30;99.90;;;;;;10304894;28;20225;-80
2022/06/08 22:33:32;;;;;;;13.23;10.85;;;18.30;99.90;;;;;;10279754;28;20274;-81
2022/06/08 22:38:53;;;;;;;15.35;11.95;;;18.20;99.90;;;;;;10279623;28;20199;-82
2022/06/08 22:44:15;;;;;;;12.95;9.98;;;18.20;99.90;;;;;;10280102;28;20203;-82
2022/06/08 22:49:37;;;;;;;12.02;10.38;;;18.20;99.40;;;;;;10278348;28;20227;-81
2022/06/08 22:54:58;;;;;;;13.43;9.75;;;18.10;94.20;;;;;;10279264;28;20434;-80
2022/06/08 23:00:23;;;;;;;13.45;9.00;;;18.00;75.20;;;;;;10277532;28;20195;-82
2022/06/08 23:05:45;;;;;;;15.63;10.20;;;17.90;56.20;;;;;;10277983;28;20192;-84
2022/06/08 23:22:27;;;;;;;13.27;9.45;;;17.80;43.00;;;;;;10263184;28;20367;-81
2022/06/08 23:27:49;;;;;;;15.15;10.82;;;17.80;41.90;;;;;;10300320;28;20210;-80
2022/06/08 23:33:12;;;;;;;14.20;10.60;;;17.70;49.30;;;;;;10278488;28;20238;-80
2022/06/08 23:38:33;;;;;;;13.45;10.35;;;17.70;48.50;;;;;;10262867;28;20203;-80
2022/06/08 23:43:55;;;;;;;12.40;10.02;;;17.60;44.50;;;;;;10276625;28;20203;-81
2022/06/08 23:49:16;;;;;;;11.88;9.07;;;17.50;36.20;;;;;;10275469;28;20230;-84
2022/06/08 23:54:37;;;;;;;14.95;9.35;;;17.50;37.30;;;;;;10262161;28;20512;-80
2022/06/08 23:59:59;;;;;;;12.45;9.80;;;17.40;38.20;;;;;;10262249;28;20199;-80
